createdAt,value
2022-11-14T00:01:09.760Z,13.10
2022-11-14T00:03:38.239Z,13.10
2022-11-14T00:06:08.739Z,13.10
2022-11-14T00:08:37.475Z,13.10
2022-11-14T00:11:05.976Z,13.00
2022-11-14T00:13:34.380Z,13.10
2022-11-14T00:16:02.702Z,13.10
2022-11-14T00:18:31.388Z,13.00
2022-11-14T00:21:00.034Z,12.90
2022-11-14T00:23:29.824Z,12.90
2022-11-14T00:25:58.234Z,12.90
2022-11-14T00:28:26.744Z,12.90
2022-11-14T00:30:55.207Z,12.80
2022-11-14T00:33:23.691Z,12.80
2022-11-14T00:35:52.956Z,12.90
2022-11-14T00:38:21.400Z,12.90
2022-11-14T00:40:51.243Z,12.90
2022-11-14T00:43:19.664Z,12.90
2022-11-14T00:45:48.463Z,12.90
2022-11-14T00:48:17.028Z,12.90
2022-11-14T00:50:45.648Z,12.90
2022-11-14T00:53:14.371Z,12.90
2022-11-14T00:55:42.823Z,13.00
2022-11-14T00:58:12.615Z,12.90
2022-11-14T01:00:41.062Z,13.00
2022-11-14T01:03:09.419Z,13.00
2022-11-14T01:05:41.631Z,13.10
2022-11-14T01:08:10.189Z,13.20
2022-11-14T01:10:40.168Z,13.20
2022-11-14T01:13:08.785Z,13.30
2022-11-14T01:15:41.246Z,13.30
2022-11-14T01:18:09.604Z,13.40
2022-11-14T01:20:39.949Z,13.40
2022-11-14T01:23:08.654Z,13.30
2022-11-14T01:25:37.599Z,13.30
2022-11-14T01:28:07.134Z,13.30
2022-11-14T01:30:35.567Z,13.20
2022-11-14T01:33:05.646Z,13.00
2022-11-14T01:35:34.556Z,12.90
2022-11-14T01:38:02.993Z,12.80
2022-11-14T01:40:31.791Z,12.80
2022-11-14T01:43:18.498Z,12.70
2022-11-14T01:45:52.579Z,12.60
2022-11-14T01:48:24.008Z,12.50
2022-11-14T01:50:55.580Z,12.40
2022-11-14T01:53:24.117Z,12.40
2022-11-14T01:55:53.584Z,12.50
2022-11-14T01:58:22.211Z,12.60
2022-11-14T02:00:50.663Z,12.70
2022-11-14T02:03:19.531Z,12.70
2022-11-14T02:05:50.032Z,12.80
2022-11-14T02:08:19.284Z,12.70
2022-11-14T02:10:47.609Z,12.70
2022-11-14T02:13:15.989Z,12.60
2022-11-14T02:15:44.459Z,12.50
2022-11-14T02:18:13.478Z,12.40
2022-11-14T02:20:43.872Z,12.40
2022-11-14T02:23:12.761Z,12.40
2022-11-14T02:25:41.380Z,12.40
2022-11-14T02:28:10.692Z,12.40
2022-11-14T02:30:39.068Z,12.50
2022-11-14T02:33:11.589Z,12.50
2022-11-14T02:35:40.556Z,12.50
2022-11-14T02:38:10.426Z,12.50
2022-11-14T02:40:38.819Z,12.50
2022-11-14T02:43:07.256Z,12.40
2022-11-14T02:45:35.638Z,12.50
2022-11-14T02:48:04.234Z,12.50
2022-11-14T02:50:32.578Z,12.50
2022-11-14T02:53:00.956Z,12.60
2022-11-14T02:55:30.726Z,12.70
2022-11-14T02:57:59.106Z,12.80
2022-11-14T03:00:27.477Z,12.90
2022-11-14T03:02:55.862Z,13.00
2022-11-14T03:05:24.251Z,13.00
2022-11-14T03:07:53.944Z,13.00
2022-11-14T03:10:22.756Z,13.00
2022-11-14T03:12:55.469Z,13.00
2022-11-14T03:15:24.043Z,13.00
2022-11-14T03:17:52.533Z,12.90
2022-11-14T03:20:21.784Z,12.80
2022-11-14T03:22:50.255Z,12.70
2022-11-14T03:25:18.670Z,12.60
2022-11-14T03:27:47.050Z,12.50
2022-11-14T03:30:16.968Z,12.50
2022-11-14T03:32:45.312Z,12.50
2022-11-14T03:35:13.735Z,12.70
2022-11-14T03:37:42.088Z,12.70
2022-11-14T03:40:10.702Z,12.70
2022-11-14T03:42:39.081Z,12.50
2022-11-14T03:45:07.822Z,12.40
2022-11-14T03:47:37.680Z,12.40
2022-11-14T03:50:06.594Z,12.30
2022-11-14T03:52:34.981Z,12.30
2022-11-14T03:55:03.380Z,12.20
2022-11-14T03:57:31.800Z,12.20
2022-11-14T04:00:00.152Z,12.20
2022-11-14T04:02:28.708Z,12.20
2022-11-14T04:04:58.473Z,12.20
2022-11-14T04:07:26.904Z,12.20
2022-11-14T04:09:55.440Z,12.30
2022-11-14T04:12:23.919Z,12.30
2022-11-14T04:14:52.292Z,12.30
2022-11-14T04:17:20.696Z,12.30
2022-11-14T04:19:49.134Z,12.30
2022-11-14T04:22:18.924Z,12.40
2022-11-14T04:24:47.377Z,12.40
2022-11-14T04:27:15.744Z,12.50
2022-11-14T04:29:44.096Z,12.50
2022-11-14T04:32:12.501Z,12.50
2022-11-14T04:34:40.869Z,12.50
2022-11-14T04:37:09.263Z,12.50
2022-11-14T04:39:39.115Z,12.50
2022-11-14T04:42:07.521Z,12.50
2022-11-14T04:44:35.896Z,12.50
2022-11-14T04:47:04.389Z,12.60
2022-11-14T04:49:32.834Z,12.60
2022-11-14T04:52:01.204Z,12.70
2022-11-14T04:54:29.657Z,12.70
2022-11-14T04:56:59.458Z,12.70
2022-11-14T04:59:27.933Z,12.80
2022-11-14T05:01:56.332Z,12.90
2022-11-14T05:04:24.798Z,12.80
2022-11-14T05:06:53.233Z,12.70
2022-11-14T05:09:21.715Z,12.70
2022-11-14T05:11:50.128Z,12.60
2022-11-14T05:14:19.952Z,12.50
2022-11-14T05:16:48.362Z,12.50
2022-11-14T05:19:16.945Z,12.50
2022-11-14T05:21:45.363Z,12.50
2022-11-14T05:24:14.768Z,12.60
2022-11-14T05:26:43.287Z,12.70
2022-11-14T05:29:11.716Z,12.80
2022-11-14T05:31:41.446Z,12.90
2022-11-14T05:34:09.834Z,12.90
2022-11-14T05:36:38.239Z,12.90
2022-11-14T05:39:06.583Z,12.80
2022-11-14T05:41:34.916Z,12.90
2022-11-14T05:44:05.075Z,12.90
2022-11-14T05:46:33.482Z,13.00
2022-11-14T05:49:03.393Z,13.10
2022-11-14T05:51:31.807Z,13.20
2022-11-14T05:54:00.145Z,13.30
2022-11-14T05:56:29.025Z,13.50
2022-11-14T05:58:57.507Z,13.50
2022-11-14T06:01:25.945Z,13.50
2022-11-14T06:03:54.616Z,13.50
2022-11-14T06:06:24.402Z,13.50
2022-11-14T06:08:54.144Z,13.40
2022-11-14T06:11:22.510Z,13.30
2022-11-14T06:13:50.890Z,13.10
2022-11-14T06:16:20.231Z,12.90
2022-11-14T06:18:49.069Z,12.80
2022-11-14T06:21:18.540Z,12.80
2022-11-14T06:23:48.633Z,12.80
2022-11-14T06:26:21.646Z,12.80
2022-11-14T06:28:50.542Z,12.90
2022-11-14T06:31:19.588Z,13.00
2022-11-14T06:33:48.079Z,13.20
2022-11-14T06:36:16.484Z,13.40
2022-11-14T06:38:45.316Z,13.40
2022-11-14T06:41:15.794Z,13.50
2022-11-14T06:43:44.973Z,13.40
2022-11-14T06:46:14.131Z,13.30
2022-11-14T06:48:43.040Z,13.30
2022-11-14T06:51:11.914Z,13.30
2022-11-14T06:53:40.815Z,13.50
2022-11-14T06:56:10.086Z,13.50
2022-11-14T06:58:41.061Z,13.60
2022-11-14T07:01:11.838Z,13.60
2022-11-14T07:03:40.541Z,13.70
2022-11-14T07:06:09.457Z,13.70
2022-11-14T07:08:38.204Z,13.80
2022-11-14T07:11:07.488Z,13.80
2022-11-14T07:13:36.543Z,13.80
2022-11-14T07:16:07.018Z,13.70
2022-11-14T07:18:35.349Z,13.70
2022-11-14T07:21:05.277Z,13.70
2022-11-14T07:23:35.911Z,13.80
2022-11-14T07:26:04.830Z,13.80
2022-11-14T07:28:33.349Z,13.90
2022-11-14T07:31:04.098Z,13.90
2022-11-14T07:33:34.076Z,13.90
2022-11-14T07:36:02.544Z,13.90
2022-11-14T07:38:31.885Z,14.00
2022-11-14T07:41:01.596Z,14.00
2022-11-14T07:43:30.048Z,13.90
2022-11-14T07:45:59.954Z,13.90
2022-11-14T07:48:28.879Z,13.70
2022-11-14T07:51:01.486Z,13.70
2022-11-14T07:53:30.485Z,13.70
2022-11-14T07:55:59.067Z,13.70
2022-11-14T07:58:27.606Z,13.80
2022-11-14T08:00:56.183Z,13.80
2022-11-14T08:03:24.576Z,13.90
2022-11-14T08:05:52.992Z,14.00
2022-11-14T08:08:22.763Z,14.00
2022-11-14T08:10:51.142Z,14.00
2022-11-14T08:13:34.851Z,14.00
2022-11-14T08:16:10.774Z,14.00
2022-11-14T08:18:40.584Z,14.10
2022-11-14T08:21:09.168Z,14.10
2022-11-14T08:23:38.908Z,14.20
2022-11-14T08:26:07.271Z,14.20
2022-11-14T08:28:35.632Z,14.20
2022-11-14T08:31:04.568Z,14.20
2022-11-14T08:33:33.023Z,14.10
2022-11-14T08:36:01.982Z,14.10
2022-11-14T08:38:31.778Z,14.10
2022-11-14T08:41:02.169Z,14.20
2022-11-14T08:43:30.868Z,14.20
2022-11-14T08:46:01.791Z,14.20
2022-11-14T08:48:31.401Z,14.30
2022-11-14T08:51:03.346Z,14.30
2022-11-14T08:53:33.051Z,14.40
2022-11-14T08:56:03.048Z,14.40
2022-11-14T08:58:32.241Z,14.40
2022-11-14T09:01:02.223Z,14.40
2022-11-14T09:03:30.678Z,14.40
2022-11-14T09:05:59.238Z,14.40
2022-11-14T09:08:28.020Z,14.40
2022-11-14T09:10:59.198Z,14.40
2022-11-14T09:13:34.517Z,14.40
2022-11-14T09:16:03.121Z,14.40
2022-11-14T09:18:32.266Z,14.50
2022-11-14T09:21:01.357Z,14.50
2022-11-14T09:23:30.120Z,14.50
2022-11-14T09:25:58.997Z,14.70
2022-11-14T09:28:27.419Z,14.70
2022-11-14T09:31:00.697Z,14.80
2022-11-14T09:33:29.426Z,14.90
2022-11-14T09:35:58.537Z,15.00
2022-11-14T09:38:27.670Z,15.10
2022-11-14T09:41:03.093Z,15.10
2022-11-14T09:43:44.722Z,15.10
2022-11-14T09:46:18.685Z,15.00
2022-11-14T09:48:47.099Z,15.00
2022-11-14T09:51:17.320Z,14.90
2022-11-14T09:53:49.156Z,14.90
2022-11-14T09:56:20.687Z,14.90
2022-11-14T09:58:49.163Z,14.90
2022-11-14T10:01:23.744Z,14.90
2022-11-14T10:03:55.669Z,14.90
2022-11-14T10:06:27.581Z,14.90
2022-11-14T10:09:04.528Z,14.90
2022-11-14T10:11:34.965Z,14.90
2022-11-14T10:14:27.141Z,15.00
2022-11-14T10:17:00.361Z,15.00
2022-11-14T10:19:31.322Z,15.00
2022-11-14T10:22:09.663Z,15.00
2022-11-14T10:24:48.800Z,15.00
2022-11-14T10:27:19.643Z,15.10
2022-11-14T10:29:53.599Z,15.10
2022-11-14T10:32:28.930Z,15.20
2022-11-14T10:35:00.151Z,15.10
2022-11-14T10:37:32.901Z,15.10
2022-11-14T10:40:04.002Z,15.20
2022-11-14T10:42:33.865Z,15.20
2022-11-14T10:45:04.078Z,15.20
2022-11-14T10:47:37.089Z,15.20
2022-11-14T10:50:13.172Z,15.20
2022-11-14T10:52:42.949Z,15.20
2022-11-14T10:55:15.197Z,15.20
2022-11-14T10:57:44.228Z,15.20
2022-11-14T11:00:13.469Z,15.10
2022-11-14T11:02:50.735Z,15.10
2022-11-14T11:05:20.060Z,15.00
2022-11-14T11:08:28.229Z,14.90
2022-11-14T11:11:16.902Z,14.90
2022-11-14T11:13:51.739Z,14.80
2022-11-14T11:16:22.317Z,14.80
2022-11-14T11:18:52.446Z,14.80
2022-11-14T11:21:22.050Z,14.80
2022-11-14T11:23:51.626Z,14.90
2022-11-14T11:26:25.150Z,14.90
2022-11-14T11:29:03.838Z,15.00
2022-11-14T11:31:50.282Z,15.10
2022-11-14T11:34:23.949Z,15.10
2022-11-14T11:36:55.024Z,15.20
2022-11-14T11:39:25.650Z,15.40
2022-11-14T11:42:09.231Z,15.30
2022-11-14T11:44:41.782Z,15.20
2022-11-14T11:47:13.482Z,15.20
2022-11-14T11:49:52.968Z,15.20
2022-11-14T11:52:27.815Z,15.20
2022-11-14T11:54:59.665Z,15.20
2022-11-14T11:57:32.105Z,15.30
2022-11-14T12:00:04.967Z,15.30
2022-11-14T12:02:33.965Z,15.30
2022-11-14T12:05:03.733Z,15.50
2022-11-14T12:07:36.065Z,15.60
2022-11-14T12:10:22.031Z,15.50
2022-11-14T12:13:27.611Z,15.50
2022-11-14T12:16:13.335Z,15.60
2022-11-14T12:18:56.375Z,15.60
2022-11-14T12:21:45.481Z,15.50
2022-11-14T12:24:25.834Z,15.60
2022-11-14T12:27:02.479Z,15.60
2022-11-14T12:29:37.098Z,15.60
2022-11-14T12:32:07.588Z,15.80
2022-11-14T12:34:38.796Z,15.70
2022-11-14T12:37:11.277Z,15.60
2022-11-14T12:39:40.301Z,15.60
2022-11-14T12:42:14.584Z,15.60
2022-11-14T12:44:43.062Z,15.70
2022-11-14T12:47:16.044Z,15.80
2022-11-14T12:50:00.858Z,15.70
2022-11-14T12:52:48.727Z,15.70
2022-11-14T12:55:34.835Z,15.60
2022-11-14T12:58:06.105Z,15.60
2022-11-14T13:00:35.061Z,15.70
2022-11-14T13:03:17.990Z,15.70
2022-11-14T13:05:50.931Z,15.70
2022-11-14T13:08:35.101Z,15.70
2022-11-14T13:11:51.968Z,15.70
2022-11-14T13:14:38.022Z,15.70
2022-11-14T13:17:41.373Z,15.90
2022-11-14T13:20:43.797Z,15.90
2022-11-14T13:23:30.774Z,16.00
2022-11-14T13:26:14.511Z,15.90
2022-11-14T13:28:48.830Z,15.90
2022-11-14T13:31:20.614Z,15.90
2022-11-14T13:33:49.946Z,15.90
2022-11-14T13:36:23.745Z,15.80
2022-11-14T13:38:58.532Z,15.90
2022-11-14T13:41:47.544Z,15.90
2022-11-14T13:44:36.551Z,16.00
2022-11-14T13:47:13.181Z,15.90
2022-11-14T13:49:50.752Z,15.80
2022-11-14T13:52:19.747Z,15.70
2022-11-14T13:54:48.885Z,15.70
2022-11-14T13:57:23.065Z,15.80
2022-11-14T13:59:58.881Z,15.80
2022-11-14T14:02:37.472Z,15.80
2022-11-14T14:05:12.141Z,15.70
2022-11-14T14:07:51.322Z,15.70
2022-11-14T14:10:25.637Z,15.70
2022-11-14T14:13:10.029Z,15.80
2022-11-14T14:15:44.445Z,15.70
2022-11-14T14:18:16.987Z,15.60
2022-11-14T14:20:47.095Z,15.60
2022-11-14T14:23:21.629Z,15.70
2022-11-14T14:25:57.081Z,15.70
2022-11-14T14:28:31.769Z,15.70
2022-11-14T14:31:12.346Z,15.70
2022-11-14T14:33:41.868Z,15.70
2022-11-14T14:36:18.440Z,15.60
2022-11-14T14:38:47.137Z,15.60
2022-11-14T14:41:16.174Z,15.60
2022-11-14T14:43:50.514Z,15.60
2022-11-14T14:46:28.336Z,15.60
2022-11-14T14:48:57.143Z,15.60
2022-11-14T14:51:31.880Z,15.60
2022-11-14T14:54:00.273Z,15.50
2022-11-14T14:56:29.917Z,15.50
2022-11-14T14:58:58.374Z,15.40
2022-11-14T15:01:32.908Z,15.30
2022-11-14T15:04:03.802Z,15.30
2022-11-14T15:06:33.824Z,15.30
2022-11-14T15:09:03.490Z,15.30
2022-11-14T15:11:32.918Z,15.20
2022-11-14T15:14:02.001Z,15.20
2022-11-14T15:16:32.474Z,15.20
2022-11-14T15:19:01.041Z,15.10
2022-11-14T15:21:30.036Z,15.10
2022-11-14T15:24:02.623Z,15.00
2022-11-14T15:26:31.883Z,15.00
2022-11-14T15:29:07.064Z,15.00
2022-11-14T15:31:37.850Z,15.00
2022-11-14T15:34:07.838Z,15.00
2022-11-14T15:36:36.271Z,15.00
2022-11-14T15:39:05.571Z,14.90
2022-11-14T15:41:34.198Z,15.00
2022-11-14T15:44:05.797Z,15.00
2022-11-14T15:46:47.347Z,14.90
2022-11-14T15:49:21.568Z,15.00
2022-11-14T15:51:51.075Z,14.90
2022-11-14T15:54:23.601Z,14.80
2022-11-14T15:56:52.126Z,14.80
2022-11-14T15:59:20.556Z,14.80
2022-11-14T16:01:51.489Z,15.00
2022-11-14T16:04:20.973Z,15.00
2022-11-14T16:06:49.407Z,15.00
2022-11-14T16:09:18.476Z,14.90
2022-11-14T16:11:48.873Z,14.90
2022-11-14T16:14:17.591Z,14.90
2022-11-14T16:16:45.984Z,14.80
2022-11-14T16:19:16.585Z,14.80
2022-11-14T16:21:45.860Z,14.80
2022-11-14T16:24:18.257Z,14.80
2022-11-14T16:26:46.691Z,14.80
2022-11-14T16:29:15.317Z,14.90
2022-11-14T16:31:44.668Z,14.90
2022-11-14T16:34:19.370Z,14.90
2022-11-14T16:36:48.822Z,15.00
2022-11-14T16:39:17.216Z,14.90
2022-11-14T16:41:45.526Z,14.90
2022-11-14T16:44:15.655Z,14.90
2022-11-14T16:46:44.178Z,14.90
2022-11-14T16:49:15.922Z,14.90
2022-11-14T16:51:48.144Z,14.90
2022-11-14T16:54:17.739Z,14.90
2022-11-14T16:56:46.193Z,14.90
2022-11-14T16:59:14.735Z,14.90
2022-11-14T17:01:43.437Z,14.90
2022-11-14T17:04:11.871Z,14.80
2022-11-14T17:06:41.748Z,14.80
2022-11-14T17:09:13.358Z,14.80
2022-11-14T17:11:41.947Z,14.80
2022-11-14T17:14:10.280Z,14.80
2022-11-14T17:16:38.590Z,14.80
2022-11-14T17:19:07.904Z,14.80
2022-11-14T17:21:36.270Z,14.80
2022-11-14T17:24:06.461Z,14.70
2022-11-14T17:26:34.845Z,14.70
2022-11-14T17:29:03.485Z,14.70
2022-11-14T17:31:37.420Z,14.70
2022-11-14T17:34:06.773Z,14.70
2022-11-14T17:36:35.125Z,14.70
2022-11-14T17:39:03.520Z,14.60
2022-11-14T17:41:33.720Z,14.60
2022-11-14T17:44:03.705Z,14.70
2022-11-14T17:46:32.180Z,14.70
2022-11-14T17:49:00.712Z,14.80
2022-11-14T17:51:29.147Z,14.80
2022-11-14T17:53:57.715Z,14.70
2022-11-14T17:56:26.846Z,14.70
2022-11-14T17:58:56.555Z,14.70
2022-11-14T18:01:26.197Z,14.70
2022-11-14T18:03:54.656Z,14.70
2022-11-14T18:06:24.332Z,14.70
2022-11-14T18:08:52.869Z,14.70
2022-11-14T18:11:21.189Z,14.80
2022-11-14T18:13:49.547Z,14.80
2022-11-14T18:16:20.393Z,14.70
2022-11-14T18:18:48.799Z,14.70
2022-11-14T18:21:17.881Z,14.70
2022-11-14T18:23:50.953Z,14.70
2022-11-14T18:26:21.104Z,14.70
2022-11-14T18:28:49.848Z,14.70
2022-11-14T18:31:19.795Z,14.70
2022-11-14T18:33:48.164Z,14.60
2022-11-14T18:36:16.657Z,14.70
2022-11-14T18:38:45.337Z,14.70
2022-11-14T18:41:14.581Z,14.70
2022-11-14T18:43:44.432Z,14.60
2022-11-14T18:46:14.997Z,14.60
2022-11-14T18:48:45.646Z,14.70
2022-11-14T18:51:15.081Z,14.70
2022-11-14T18:53:43.457Z,14.70
2022-11-14T18:56:12.777Z,14.70
2022-11-14T18:58:41.729Z,14.70
2022-11-14T19:01:11.651Z,14.70
2022-11-14T19:03:40.038Z,14.70
2022-11-14T19:06:10.773Z,14.70
2022-11-14T19:08:39.825Z,14.70
2022-11-14T19:11:29.639Z,14.80
2022-11-14T19:13:58.734Z,14.80
2022-11-14T19:16:27.324Z,14.80
2022-11-14T19:18:55.785Z,14.80
2022-11-14T19:21:25.964Z,14.90
2022-11-14T19:23:54.923Z,14.90
2022-11-14T19:26:23.643Z,14.90
2022-11-14T19:28:52.148Z,14.90
2022-11-14T19:31:21.431Z,14.90
2022-11-14T19:33:50.254Z,14.90
2022-11-14T19:36:44.875Z,14.90
2022-11-14T19:39:09.245Z,14.80
2022-11-14T19:41:37.606Z,14.80
2022-11-14T19:44:06.182Z,14.80
2022-11-14T19:46:36.787Z,14.80
2022-11-14T19:49:05.468Z,14.80
2022-11-14T19:51:34.004Z,14.80
2022-11-14T19:54:02.961Z,14.70
2022-11-14T19:56:32.712Z,14.80
2022-11-14T19:59:02.784Z,14.80
2022-11-14T20:01:31.282Z,14.80
2022-11-14T20:04:00.214Z,14.90
2022-11-14T20:06:29.616Z,14.90
2022-11-14T20:08:58.757Z,14.90
2022-11-14T20:11:27.863Z,14.90
2022-11-14T20:13:58.364Z,14.90
2022-11-14T20:16:28.002Z,14.90
2022-11-14T20:18:59.252Z,14.90
2022-11-14T20:21:29.511Z,14.90
2022-11-14T20:23:58.081Z,14.80
2022-11-14T20:26:26.550Z,14.90
2022-11-14T20:28:54.994Z,14.80
2022-11-14T20:31:25.622Z,14.70
2022-11-14T20:33:54.597Z,14.70
2022-11-14T20:36:23.978Z,14.70
2022-11-14T20:38:52.771Z,14.70
2022-11-14T20:41:21.591Z,14.70
2022-11-14T20:43:50.112Z,14.60
2022-11-14T20:46:19.518Z,14.60
2022-11-14T20:48:49.647Z,14.60
2022-11-14T20:51:18.789Z,14.60
2022-11-14T20:53:47.545Z,14.50
2022-11-14T20:56:17.354Z,14.50
2022-11-14T20:58:46.316Z,14.50
2022-11-14T21:01:15.196Z,14.50
2022-11-14T21:03:43.692Z,14.40
2022-11-14T21:06:14.245Z,14.40
2022-11-14T21:08:42.960Z,14.40
2022-11-14T21:11:14.485Z,14.30
2022-11-14T21:13:57.817Z,14.30
2022-11-14T21:16:27.585Z,14.30
2022-11-14T21:18:56.748Z,14.30
2022-11-14T21:21:27.514Z,14.40
2022-11-14T21:23:56.266Z,14.40
2022-11-14T21:26:25.788Z,14.40
2022-11-14T21:28:55.066Z,14.40
2022-11-14T21:31:25.353Z,14.40
2022-11-14T21:33:56.591Z,14.40
2022-11-14T21:39:16.638Z,14.40
2022-11-14T21:41:45.891Z,14.40
2022-11-14T21:44:16.577Z,14.40
2022-11-14T21:46:46.453Z,14.50
2022-11-14T21:49:15.036Z,14.50
2022-11-14T21:51:44.835Z,14.50
2022-11-14T21:54:13.255Z,14.50
2022-11-14T21:56:41.770Z,14.50
2022-11-14T21:59:16.934Z,14.50
2022-11-14T22:02:03.616Z,14.50
2022-11-14T22:04:32.580Z,14.50
2022-11-14T22:07:02.894Z,14.50
2022-11-14T22:09:31.486Z,14.50
2022-11-14T22:12:00.048Z,14.50
2022-11-14T22:14:29.451Z,14.50
2022-11-14T22:16:58.679Z,14.50
2022-11-14T22:19:27.376Z,14.50
2022-11-14T22:21:55.878Z,14.50
2022-11-14T22:24:25.748Z,14.50
2022-11-14T22:26:54.206Z,14.50
2022-11-14T22:29:22.825Z,14.40
2022-11-14T22:31:53.101Z,14.30
2022-11-14T22:34:21.740Z,14.30
2022-11-14T22:36:50.092Z,14.30
2022-11-14T22:39:18.460Z,14.30
2022-11-14T22:41:48.415Z,14.20
2022-11-14T22:44:16.940Z,14.20
2022-11-14T22:46:45.373Z,14.20
2022-11-14T22:49:18.382Z,14.20
2022-11-14T22:51:48.285Z,14.10
2022-11-14T22:54:16.848Z,14.00
2022-11-14T22:56:45.290Z,13.90
2022-11-14T22:59:15.049Z,13.80
2022-11-14T23:01:43.409Z,13.80
2022-11-14T23:04:11.819Z,13.70
2022-11-14T23:06:40.305Z,13.60
2022-11-14T23:09:08.688Z,13.50
2022-11-14T23:11:37.127Z,13.50
2022-11-14T23:14:05.625Z,13.40
2022-11-14T23:16:35.751Z,13.40
2022-11-14T23:19:05.185Z,13.40
2022-11-14T23:21:35.711Z,13.50
2022-11-14T23:24:05.576Z,13.40
2022-11-14T23:26:34.283Z,13.50
2022-11-14T23:29:02.852Z,13.50
2022-11-14T23:31:31.192Z,13.50
2022-11-14T23:34:00.971Z,13.60
2022-11-14T23:36:29.437Z,13.60
2022-11-14T23:38:57.847Z,13.60
2022-11-14T23:41:26.792Z,13.60
2022-11-14T23:43:55.239Z,13.60
2022-11-14T23:46:23.695Z,13.70
2022-11-14T23:48:53.432Z,13.70
2022-11-14T23:51:23.418Z,13.70
2022-11-14T23:53:52.043Z,13.70
2022-11-14T23:56:20.438Z,13.70
2022-11-14T23:58:48.808Z,13.70
